Weather at Greenwood Lake Airport

Public forecast

Using degrees Fahrenheit for public forecast. Weather courtesy of forecast.io.

Closest aviation weather report (METAR) to Greenwood Lake Airport

Report is more than 6 hours old.

Closest report is Sussex Airport, 13.2 nm (24.5 km) WNW.

2022/11/14 14:53 (retrieved 2 years ago)

KFWN 141453Z AUTO 31007G17KT 280V360 10SM OVC041 04/M06 A3034 RMK AO2 SLP276 T00391056 51020

Closest aviation forecast (TAF) to Greenwood Lake Airport

Forecast is more than 12 hours old.

Closest forecast is Teterboro Airport, 21.1 nm (39.1 km) SE.

2023/02/22 18:24 (retrieved 1 year ago)

TAF KTEB 221722Z 2218/2324 VRB04KT P6SM OVC050 FM221900 18005KT 6SM -RA BR SCT025 OVC050 TEMPO 2219/2222 -RASNPL OVC015 FM222200 10005KT 5SM -RA OVC010 FM230000 09007KT 5SM -RA BR OVC008 FM230500 06006KT 3SM -RADZ BR OVC006 FM231200 36005KT P6SM OVC012